sensor_id;sensor_type;location;lat;lon;timestamp;temperature;humidity
7902;DHT22;3996;49.674;10.716;2022-12-10T00:00:25;-1.20;54.60
7902;DHT22;3996;49.674;10.716;2022-12-10T00:02:50;-1.30;54.30
7902;DHT22;3996;49.674;10.716;2022-12-10T00:05:16;-1.30;55.40
7902;DHT22;3996;49.674;10.716;2022-12-10T00:07:42;-1.30;54.60
7902;DHT22;3996;49.674;10.716;2022-12-10T00:10:07;-1.30;54.60
7902;DHT22;3996;49.674;10.716;2022-12-10T00:12:33;-1.20;55.20
7902;DHT22;3996;49.674;10.716;2022-12-10T00:14:59;-1.30;53.50
7902;DHT22;3996;49.674;10.716;2022-12-10T00:17:24;-1.40;54.70
7902;DHT22;3996;49.674;10.716;2022-12-10T00:19:50;-1.30;55.10
7902;DHT22;3996;49.674;10.716;2022-12-10T00:22:15;-1.40;54.40
7902;DHT22;3996;49.674;10.716;2022-12-10T00:24:41;-1.40;54.20
7902;DHT22;3996;49.674;10.716;2022-12-10T00:27:06;-1.40;54.10
7902;DHT22;3996;49.674;10.716;2022-12-10T00:29:32;-1.50;53.90
7902;DHT22;3996;49.674;10.716;2022-12-10T00:31:57;-1.50;54.10
7902;DHT22;3996;49.674;10.716;2022-12-10T00:34:23;-1.50;52.80
7902;DHT22;3996;49.674;10.716;2022-12-10T00:36:49;-1.50;53.90
7902;DHT22;3996;49.674;10.716;2022-12-10T00:39:17;-1.60;54.00
7902;DHT22;3996;49.674;10.716;2022-12-10T00:41:44;-1.60;54.30
7902;DHT22;3996;49.674;10.716;2022-12-10T00:44:09;-1.60;54.30
7902;DHT22;3996;49.674;10.716;2022-12-10T00:46:35;-1.60;54.00
7902;DHT22;3996;49.674;10.716;2022-12-10T00:49:01;-1.90;52.80
7902;DHT22;3996;49.674;10.716;2022-12-10T00:51:27;-2.10;55.70
7902;DHT22;3996;49.674;10.716;2022-12-10T00:53:54;-1.80;54.90
7902;DHT22;3996;49.674;10.716;2022-12-10T00:56:22;-1.80;54.30
7902;DHT22;3996;49.674;10.716;2022-12-10T00:58:48;-1.70;55.10
7902;DHT22;3996;49.674;10.716;2022-12-10T01:01:23;-1.60;53.90
7902;DHT22;3996;49.674;10.716;2022-12-10T01:03:52;-1.70;54.30
7902;DHT22;3996;49.674;10.716;2022-12-10T01:06:28;-1.60;53.90
7902;DHT22;3996;49.674;10.716;2022-12-10T01:08:57;-1.70;54.00
7902;DHT22;3996;49.674;10.716;2022-12-10T01:11:28;-1.80;54.30
7902;DHT22;3996;49.674;10.716;2022-12-10T01:13:54;-1.80;53.10
7902;DHT22;3996;49.674;10.716;2022-12-10T01:16:21;-2.00;53.60
7902;DHT22;3996;49.674;10.716;2022-12-10T01:18:47;-2.00;53.80
7902;DHT22;3996;49.674;10.716;2022-12-10T01:21:15;-2.00;54.50
7902;DHT22;3996;49.674;10.716;2022-12-10T01:23:42;-1.90;53.70
7902;DHT22;3996;49.674;10.716;2022-12-10T01:26:14;-2.00;53.30
7902;DHT22;3996;49.674;10.716;2022-12-10T01:28:40;-2.10;53.50
7902;DHT22;3996;49.674;10.716;2022-12-10T01:31:13;-2.00;53.40
7902;DHT22;3996;49.674;10.716;2022-12-10T01:33:40;-2.20;53.50
7902;DHT22;3996;49.674;10.716;2022-12-10T01:36:14;-2.20;54.10
7902;DHT22;3996;49.674;10.716;2022-12-10T01:38:41;-2.10;53.20
7902;DHT22;3996;49.674;10.716;2022-12-10T01:41:07;-2.10;52.30
7902;DHT22;3996;49.674;10.716;2022-12-10T01:43:55;-2.10;53.80
7902;DHT22;3996;49.674;10.716;2022-12-10T01:46:48;-2.10;52.30
7902;DHT22;3996;49.674;10.716;2022-12-10T01:49:18;-2.10;53.60
7902;DHT22;3996;49.674;10.716;2022-12-10T01:51:56;-2.00;52.90
7902;DHT22;3996;49.674;10.716;2022-12-10T01:54:22;-2.00;52.40
7902;DHT22;3996;49.674;10.716;2022-12-10T01:57:00;-2.00;52.60
7902;DHT22;3996;49.674;10.716;2022-12-10T01:59:28;-2.10;53.70
7902;DHT22;3996;49.674;10.716;2022-12-10T02:02:20;-2.10;53.90
7902;DHT22;3996;49.674;10.716;2022-12-10T02:04:55;-2.10;52.90
7902;DHT22;3996;49.674;10.716;2022-12-10T02:07:39;-2.10;53.10
7902;DHT22;3996;49.674;10.716;2022-12-10T02:10:21;-2.10;52.90
7902;DHT22;3996;49.674;10.716;2022-12-10T02:12:54;-2.20;52.20
7902;DHT22;3996;49.674;10.716;2022-12-10T02:15:26;-2.40;53.30
7902;DHT22;3996;49.674;10.716;2022-12-10T02:18:00;-2.30;53.90
7902;DHT22;3996;49.674;10.716;2022-12-10T02:20:35;-2.10;53.10
7902;DHT22;3996;49.674;10.716;2022-12-10T02:23:39;-2.10;51.60
7902;DHT22;3996;49.674;10.716;2022-12-10T02:29:16;-2.30;52.10
7902;DHT22;3996;49.674;10.716;2022-12-10T02:32:02;-2.70;52.90
7902;DHT22;3996;49.674;10.716;2022-12-10T02:34:33;-3.00;54.40
7902;DHT22;3996;49.674;10.716;2022-12-10T02:37:04;-2.90;55.60
7902;DHT22;3996;49.674;10.716;2022-12-10T02:39:35;-2.60;55.90
7902;DHT22;3996;49.674;10.716;2022-12-10T02:42:03;-2.50;54.00
7902;DHT22;3996;49.674;10.716;2022-12-10T02:44:30;-2.30;52.50
7902;DHT22;3996;49.674;10.716;2022-12-10T02:46:57;-2.20;52.40
7902;DHT22;3996;49.674;10.716;2022-12-10T02:49:24;-2.20;52.20
7902;DHT22;3996;49.674;10.716;2022-12-10T02:51:52;-2.50;52.00
7902;DHT22;3996;49.674;10.716;2022-12-10T02:54:41;-2.70;52.80
7902;DHT22;3996;49.674;10.716;2022-12-10T02:59:59;-2.50;52.70
7902;DHT22;3996;49.674;10.716;2022-12-10T03:02:36;-2.40;53.00
7902;DHT22;3996;49.674;10.716;2022-12-10T03:05:27;-2.60;51.40
7902;DHT22;3996;49.674;10.716;2022-12-10T03:08:09;-2.80;54.50
7902;DHT22;3996;49.674;10.716;2022-12-10T03:13:11;-2.30;52.40
7902;DHT22;3996;49.674;10.716;2022-12-10T03:15:40;-2.70;51.00
7902;DHT22;3996;49.674;10.716;2022-12-10T03:18:07;-3.00;53.10
7902;DHT22;3996;49.674;10.716;2022-12-10T03:20:37;-2.70;54.10
7902;DHT22;3996;49.674;10.716;2022-12-10T03:23:07;-2.60;53.00
7902;DHT22;3996;49.674;10.716;2022-12-10T03:25:34;-2.60;52.10
7902;DHT22;3996;49.674;10.716;2022-12-10T03:28:00;-2.80;53.40
7902;DHT22;3996;49.674;10.716;2022-12-10T03:30:26;-2.70;51.80
7902;DHT22;3996;49.674;10.716;2022-12-10T03:32:53;-2.80;53.50
7902;DHT22;3996;49.674;10.716;2022-12-10T03:35:20;-2.80;53.40
7902;DHT22;3996;49.674;10.716;2022-12-10T03:37:48;-2.60;53.90
7902;DHT22;3996;49.674;10.716;2022-12-10T03:40:16;-2.60;51.80
7902;DHT22;3996;49.674;10.716;2022-12-10T03:42:43;-2.90;53.70
7902;DHT22;3996;49.674;10.716;2022-12-10T03:45:09;-2.70;53.90
7902;DHT22;3996;49.674;10.716;2022-12-10T03:47:35;-2.60;53.20
7902;DHT22;3996;49.674;10.716;2022-12-10T03:50:01;-2.70;52.60
7902;DHT22;3996;49.674;10.716;2022-12-10T03:52:26;-2.60;52.60
7902;DHT22;3996;49.674;10.716;2022-12-10T03:54:52;-2.60;52.50
7902;DHT22;3996;49.674;10.716;2022-12-10T03:57:17;-2.50;52.20
7902;DHT22;3996;49.674;10.716;2022-12-10T03:59:43;-2.60;51.10
7902;DHT22;3996;49.674;10.716;2022-12-10T04:02:08;-2.80;51.60
7902;DHT22;3996;49.674;10.716;2022-12-10T04:04:36;-3.00;54.20
7902;DHT22;3996;49.674;10.716;2022-12-10T04:07:01;-2.80;54.70
7902;DHT22;3996;49.674;10.716;2022-12-10T04:09:27;-2.70;53.40
7902;DHT22;3996;49.674;10.716;2022-12-10T04:11:57;-2.70;52.20
7902;DHT22;3996;49.674;10.716;2022-12-10T04:14:23;-2.90;54.20
7902;DHT22;3996;49.674;10.716;2022-12-10T04:17:07;-2.80;54.90
7902;DHT22;3996;49.674;10.716;2022-12-10T04:19:33;-2.60;54.10
7902;DHT22;3996;49.674;10.716;2022-12-10T04:21:58;-2.60;53.00
7902;DHT22;3996;49.674;10.716;2022-12-10T04:24:42;-2.70;54.30
7902;DHT22;3996;49.674;10.716;2022-12-10T04:27:30;-2.60;54.10
7902;DHT22;3996;49.674;10.716;2022-12-10T04:29:58;-2.60;54.40
7902;DHT22;3996;49.674;10.716;2022-12-10T04:32:25;-2.60;53.30
7902;DHT22;3996;49.674;10.716;2022-12-10T04:34:51;-2.90;54.80
7902;DHT22;3996;49.674;10.716;2022-12-10T04:37:18;-2.80;56.10
7902;DHT22;3996;49.674;10.716;2022-12-10T04:39:43;-2.70;54.90
7902;DHT22;3996;49.674;10.716;2022-12-10T04:42:09;-2.80;54.20
7902;DHT22;3996;49.674;10.716;2022-12-10T04:44:35;-2.80;53.90
7902;DHT22;3996;49.674;10.716;2022-12-10T04:47:02;-2.70;53.70
7902;DHT22;3996;49.674;10.716;2022-12-10T04:49:28;-2.70;52.70
7902;DHT22;3996;49.674;10.716;2022-12-10T04:51:53;-2.60;53.10
7902;DHT22;3996;49.674;10.716;2022-12-10T04:54:20;-2.70;52.10
7902;DHT22;3996;49.674;10.716;2022-12-10T04:56:46;-3.00;54.20
7902;DHT22;3996;49.674;10.716;2022-12-10T04:59:12;-2.90;56.00
7902;DHT22;3996;49.674;10.716;2022-12-10T05:01:38;-2.60;54.40
7902;DHT22;3996;49.674;10.716;2022-12-10T05:04:06;-2.70;53.70
7902;DHT22;3996;49.674;10.716;2022-12-10T05:06:33;-2.60;54.60
7902;DHT22;3996;49.674;10.716;2022-12-10T05:08:58;-2.80;53.30
7902;DHT22;3996;49.674;10.716;2022-12-10T05:11:27;-2.90;54.10
7902;DHT22;3996;49.674;10.716;2022-12-10T05:13:53;-2.80;54.70
7902;DHT22;3996;49.674;10.716;2022-12-10T05:16:21;-2.70;53.70
7902;DHT22;3996;49.674;10.716;2022-12-10T05:18:47;-2.70;52.50
7902;DHT22;3996;49.674;10.716;2022-12-10T05:21:16;-2.70;52.10
7902;DHT22;3996;49.674;10.716;2022-12-10T05:23:44;-2.70;51.40
7902;DHT22;3996;49.674;10.716;2022-12-10T05:26:22;-2.70;51.00
7902;DHT22;3996;49.674;10.716;2022-12-10T05:28:53;-2.70;51.50
7902;DHT22;3996;49.674;10.716;2022-12-10T05:31:27;-2.70;51.00
7902;DHT22;3996;49.674;10.716;2022-12-10T05:33:54;-2.80;51.10
7902;DHT22;3996;49.674;10.716;2022-12-10T05:36:22;-2.80;51.80
7902;DHT22;3996;49.674;10.716;2022-12-10T05:38:49;-3.00;52.00
7902;DHT22;3996;49.674;10.716;2022-12-10T05:41:17;-2.90;52.60
7902;DHT22;3996;49.674;10.716;2022-12-10T05:43:44;-2.80;52.10
7902;DHT22;3996;49.674;10.716;2022-12-10T05:46:12;-2.80;51.40
7902;DHT22;3996;49.674;10.716;2022-12-10T05:48:38;-2.80;52.00
7902;DHT22;3996;49.674;10.716;2022-12-10T05:51:18;-2.70;52.40
7902;DHT22;3996;49.674;10.716;2022-12-10T05:53:44;-2.70;52.50
7902;DHT22;3996;49.674;10.716;2022-12-10T05:56:12;-2.60;52.90
7902;DHT22;3996;49.674;10.716;2022-12-10T05:58:40;-2.90;52.10
7902;DHT22;3996;49.674;10.716;2022-12-10T06:01:08;-2.90;54.70
7902;DHT22;3996;49.674;10.716;2022-12-10T06:03:34;-2.60;54.10
7902;DHT22;3996;49.674;10.716;2022-12-10T06:05:59;-2.60;54.10
7902;DHT22;3996;49.674;10.716;2022-12-10T06:08:25;-2.50;52.80
7902;DHT22;3996;49.674;10.716;2022-12-10T06:10:51;-2.50;52.40
7902;DHT22;3996;49.674;10.716;2022-12-10T06:13:16;-2.80;51.80
7902;DHT22;3996;49.674;10.716;2022-12-10T06:15:42;-2.80;53.00
7902;DHT22;3996;49.674;10.716;2022-12-10T06:18:08;-2.70;53.40
7902;DHT22;3996;49.674;10.716;2022-12-10T06:20:37;-2.70;53.80
7902;DHT22;3996;49.674;10.716;2022-12-10T06:23:04;-2.60;53.20
7902;DHT22;3996;49.674;10.716;2022-12-10T06:25:29;-2.50;53.10
7902;DHT22;3996;49.674;10.716;2022-12-10T06:27:55;-2.60;52.20
7902;DHT22;3996;49.674;10.716;2022-12-10T06:30:20;-2.60;53.20
7902;DHT22;3996;49.674;10.716;2022-12-10T06:32:46;-2.60;52.20
7902;DHT22;3996;49.674;10.716;2022-12-10T06:35:11;-2.60;52.40
7902;DHT22;3996;49.674;10.716;2022-12-10T06:37:37;-2.70;52.00
7902;DHT22;3996;49.674;10.716;2022-12-10T06:40:03;-2.70;52.30
7902;DHT22;3996;49.674;10.716;2022-12-10T06:42:29;-2.80;52.80
7902;DHT22;3996;49.674;10.716;2022-12-10T06:44:55;-2.80;52.70
7902;DHT22;3996;49.674;10.716;2022-12-10T06:47:22;-2.80;53.40
7902;DHT22;3996;49.674;10.716;2022-12-10T06:49:47;-3.00;53.50
7902;DHT22;3996;49.674;10.716;2022-12-10T06:52:13;-3.10;55.50
7902;DHT22;3996;49.674;10.716;2022-12-10T06:54:39;-2.90;54.80
7902;DHT22;3996;49.674;10.716;2022-12-10T06:57:05;-3.00;55.60
7902;DHT22;3996;49.674;10.716;2022-12-10T06:59:30;-2.70;55.30
7902;DHT22;3996;49.674;10.716;2022-12-10T07:01:56;-2.60;54.20
7902;DHT22;3996;49.674;10.716;2022-12-10T07:04:21;-2.50;54.30
7902;DHT22;3996;49.674;10.716;2022-12-10T07:06:47;-2.70;53.40
7902;DHT22;3996;49.674;10.716;2022-12-10T07:09:12;-2.70;54.20
7902;DHT22;3996;49.674;10.716;2022-12-10T07:11:38;-2.80;55.30
7902;DHT22;3996;49.674;10.716;2022-12-10T07:14:04;-2.60;55.30
7902;DHT22;3996;49.674;10.716;2022-12-10T07:16:31;-2.50;54.80
7902;DHT22;3996;49.674;10.716;2022-12-10T07:18:59;-2.40;54.60
7902;DHT22;3996;49.674;10.716;2022-12-10T07:23:54;-2.50;54.00
7902;DHT22;3996;49.674;10.716;2022-12-10T07:26:20;-2.60;55.90
7902;DHT22;3996;49.674;10.716;2022-12-10T07:28:46;-2.50;56.10
7902;DHT22;3996;49.674;10.716;2022-12-10T07:31:12;-2.30;55.50
7902;DHT22;3996;49.674;10.716;2022-12-10T07:33:38;-2.50;55.40
7902;DHT22;3996;49.674;10.716;2022-12-10T07:36:11;-2.40;56.10
7902;DHT22;3996;49.674;10.716;2022-12-10T07:38:37;-2.30;56.80
7902;DHT22;3996;49.674;10.716;2022-12-10T07:41:04;-2.10;55.30
7902;DHT22;3996;49.674;10.716;2022-12-10T07:43:30;-2.00;55.20
7902;DHT22;3996;49.674;10.716;2022-12-10T07:45:55;-1.90;54.90
7902;DHT22;3996;49.674;10.716;2022-12-10T07:48:21;-1.80;54.80
7902;DHT22;3996;49.674;10.716;2022-12-10T07:50:46;-1.70;54.30
7902;DHT22;3996;49.674;10.716;2022-12-10T07:53:12;-1.60;54.50
7902;DHT22;3996;49.674;10.716;2022-12-10T07:55:38;-1.50;54.60
7902;DHT22;3996;49.674;10.716;2022-12-10T07:58:03;-1.30;54.40
7902;DHT22;3996;49.674;10.716;2022-12-10T08:00:29;-1.30;53.70
7902;DHT22;3996;49.674;10.716;2022-12-10T08:02:54;-1.40;54.20
7902;DHT22;3996;49.674;10.716;2022-12-10T08:05:20;-1.40;55.00
7902;DHT22;3996;49.674;10.716;2022-12-10T08:07:46;-1.50;55.70
7902;DHT22;3996;49.674;10.716;2022-12-10T08:10:11;-1.50;56.50
7902;DHT22;3996;49.674;10.716;2022-12-10T08:12:37;-1.50;56.90
7902;DHT22;3996;49.674;10.716;2022-12-10T08:15:02;-1.40;56.40
7902;DHT22;3996;49.674;10.716;2022-12-10T08:17:28;-1.50;57.10
7902;DHT22;3996;49.674;10.716;2022-12-10T08:19:54;-1.50;56.90
7902;DHT22;3996;49.674;10.716;2022-12-10T08:22:20;-1.50;57.60
7902;DHT22;3996;49.674;10.716;2022-12-10T08:24:46;-1.40;58.40
7902;DHT22;3996;49.674;10.716;2022-12-10T08:27:11;-1.40;58.00
7902;DHT22;3996;49.674;10.716;2022-12-10T08:29:37;-1.40;58.60
7902;DHT22;3996;49.674;10.716;2022-12-10T08:32:03;-1.20;58.00
7902;DHT22;3996;49.674;10.716;2022-12-10T08:34:28;-1.30;58.00
7902;DHT22;3996;49.674;10.716;2022-12-10T08:36:54;-1.30;60.00
7902;DHT22;3996;49.674;10.716;2022-12-10T08:39:20;-1.30;60.00
7902;DHT22;3996;49.674;10.716;2022-12-10T08:41:46;-1.20;60.20
7902;DHT22;3996;49.674;10.716;2022-12-10T08:44:12;-1.10;59.80
7902;DHT22;3996;49.674;10.716;2022-12-10T08:46:38;-1.20;59.70
7902;DHT22;3996;49.674;10.716;2022-12-10T08:49:04;-1.10;59.20
7902;DHT22;3996;49.674;10.716;2022-12-10T08:51:30;-1.00;58.70
7902;DHT22;3996;49.674;10.716;2022-12-10T08:53:56;-1.00;58.50
7902;DHT22;3996;49.674;10.716;2022-12-10T08:56:21;-1.00;59.10
7902;DHT22;3996;49.674;10.716;2022-12-10T08:58:47;-1.00;59.60
7902;DHT22;3996;49.674;10.716;2022-12-10T09:01:15;-1.00;59.80
7902;DHT22;3996;49.674;10.716;2022-12-10T09:03:41;-0.90;59.90
7902;DHT22;3996;49.674;10.716;2022-12-10T09:06:12;-0.80;59.90
7902;DHT22;3996;49.674;10.716;2022-12-10T09:08:38;-0.80;60.20
7902;DHT22;3996;49.674;10.716;2022-12-10T09:13:32;-0.70;60.30
7902;DHT22;3996;49.674;10.716;2022-12-10T09:15:58;-0.60;59.20
7902;DHT22;3996;49.674;10.716;2022-12-10T09:18:23;-0.30;60.20
7902;DHT22;3996;49.674;10.716;2022-12-10T09:20:49;0.00;58.20
7902;DHT22;3996;49.674;10.716;2022-12-10T09:23:14;0.30;57.40
7902;DHT22;3996;49.674;10.716;2022-12-10T09:25:40;0.20;57.50
7902;DHT22;3996;49.674;10.716;2022-12-10T09:28:05;0.20;57.10
7902;DHT22;3996;49.674;10.716;2022-12-10T09:30:31;0.00;57.20
7902;DHT22;3996;49.674;10.716;2022-12-10T09:32:57;0.00;59.00
7902;DHT22;3996;49.674;10.716;2022-12-10T09:35:22;0.10;60.30
7902;DHT22;3996;49.674;10.716;2022-12-10T09:37:48;0.10;60.30
7902;DHT22;3996;49.674;10.716;2022-12-10T09:40:18;0.10;59.60
7902;DHT22;3996;49.674;10.716;2022-12-10T09:43:00;0.10;61.40
7902;DHT22;3996;49.674;10.716;2022-12-10T09:45:50;0.20;61.60
7902;DHT22;3996;49.674;10.716;2022-12-10T09:48:54;0.40;62.20
7902;DHT22;3996;49.674;10.716;2022-12-10T09:51:24;0.20;62.10
7902;DHT22;3996;49.674;10.716;2022-12-10T09:53:51;0.30;62.20
7902;DHT22;3996;49.674;10.716;2022-12-10T09:56:28;0.40;63.00
7902;DHT22;3996;49.674;10.716;2022-12-10T09:58:56;0.50;63.40
7902;DHT22;3996;49.674;10.716;2022-12-10T10:01:25;0.60;64.30
7902;DHT22;3996;49.674;10.716;2022-12-10T10:03:52;0.60;65.00
7902;DHT22;3996;49.674;10.716;2022-12-10T10:06:18;0.70;64.40
7902;DHT22;3996;49.674;10.716;2022-12-10T10:08:48;0.80;65.40
7902;DHT22;3996;49.674;10.716;2022-12-10T10:11:22;0.70;65.00
7902;DHT22;3996;49.674;10.716;2022-12-10T10:14:14;0.80;65.60
7902;DHT22;3996;49.674;10.716;2022-12-10T10:19:17;0.50;64.30
7902;DHT22;3996;49.674;10.716;2022-12-10T10:21:46;0.50;65.20
7902;DHT22;3996;49.674;10.716;2022-12-10T10:24:15;0.60;65.40
7902;DHT22;3996;49.674;10.716;2022-12-10T10:26:42;0.60;65.00
7902;DHT22;3996;49.674;10.716;2022-12-10T10:29:10;0.70;67.20
7902;DHT22;3996;49.674;10.716;2022-12-10T10:31:40;0.80;66.70
7902;DHT22;3996;49.674;10.716;2022-12-10T10:34:16;0.80;67.30
7902;DHT22;3996;49.674;10.716;2022-12-10T10:36:43;0.80;66.70
7902;DHT22;3996;49.674;10.716;2022-12-10T10:41:45;0.70;66.20
7902;DHT22;3996;49.674;10.716;2022-12-10T10:44:16;0.70;67.10
7902;DHT22;3996;49.674;10.716;2022-12-10T10:46:44;0.70;67.90
7902;DHT22;3996;49.674;10.716;2022-12-10T10:49:17;0.80;69.00
7902;DHT22;3996;49.674;10.716;2022-12-10T10:51:44;0.80;68.10
7902;DHT22;3996;49.674;10.716;2022-12-10T10:57:04;0.70;68.20
7902;DHT22;3996;49.674;10.716;2022-12-10T10:59:35;0.60;69.00
7902;DHT22;3996;49.674;10.716;2022-12-10T11:02:34;0.50;70.20
7902;DHT22;3996;49.674;10.716;2022-12-10T11:05:14;0.70;70.00
7902;DHT22;3996;49.674;10.716;2022-12-10T11:07:41;0.70;69.80
7902;DHT22;3996;49.674;10.716;2022-12-10T11:10:17;0.70;68.70
7902;DHT22;3996;49.674;10.716;2022-12-10T11:12:53;0.70;70.30
7902;DHT22;3996;49.674;10.716;2022-12-10T11:17:49;0.90;69.60
7902;DHT22;3996;49.674;10.716;2022-12-10T11:22:52;1.00;68.40
7902;DHT22;3996;49.674;10.716;2022-12-10T11:25:41;1.10;68.10
7902;DHT22;3996;49.674;10.716;2022-12-10T11:33:43;1.20;69.00
7902;DHT22;3996;49.674;10.716;2022-12-10T11:36:22;1.20;68.40
7902;DHT22;3996;49.674;10.716;2022-12-10T11:38:56;1.30;69.10
7902;DHT22;3996;49.674;10.716;2022-12-10T11:41:42;1.30;69.10
7902;DHT22;3996;49.674;10.716;2022-12-10T11:44:29;1.40;69.70
7902;DHT22;3996;49.674;10.716;2022-12-10T11:50:28;1.40;69.70
7902;DHT22;3996;49.674;10.716;2022-12-10T11:56:05;1.40;70.00
7902;DHT22;3996;49.674;10.716;2022-12-10T11:58:57;1.40;70.10
7902;DHT22;3996;49.674;10.716;2022-12-10T12:01:34;1.40;70.40
7902;DHT22;3996;49.674;10.716;2022-12-10T12:09:52;1.50;70.30
7902;DHT22;3996;49.674;10.716;2022-12-10T12:15:00;1.60;70.70
7902;DHT22;3996;49.674;10.716;2022-12-10T12:17:32;1.60;70.50
7902;DHT22;3996;49.674;10.716;2022-12-10T12:20:00;1.60;69.80
7902;DHT22;3996;49.674;10.716;2022-12-10T12:22:34;1.60;70.40
7902;DHT22;3996;49.674;10.716;2022-12-10T12:25:16;1.50;70.20
7902;DHT22;3996;49.674;10.716;2022-12-10T12:27:50;1.60;70.30
7902;DHT22;3996;49.674;10.716;2022-12-10T12:30:19;1.60;70.50
7902;DHT22;3996;49.674;10.716;2022-12-10T12:35:38;1.80;69.50
7902;DHT22;3996;49.674;10.716;2022-12-10T12:41:01;1.80;69.60
7902;DHT22;3996;49.674;10.716;2022-12-10T12:46:30;1.90;69.70
7902;DHT22;3996;49.674;10.716;2022-12-10T12:54:18;1.90;68.80
7902;DHT22;3996;49.674;10.716;2022-12-10T12:57:07;1.90;69.40
7902;DHT22;3996;49.674;10.716;2022-12-10T13:00:00;1.90;69.20
7902;DHT22;3996;49.674;10.716;2022-12-10T13:05:29;1.80;71.10
7902;DHT22;3996;49.674;10.716;2022-12-10T13:08:15;1.80;70.70
7902;DHT22;3996;49.674;10.716;2022-12-10T13:11:38;1.80;71.50
7902;DHT22;3996;49.674;10.716;2022-12-10T13:24:45;1.80;70.60
7902;DHT22;3996;49.674;10.716;2022-12-10T13:29:51;1.70;70.30
7902;DHT22;3996;49.674;10.716;2022-12-10T13:37:55;1.70;68.90
7902;DHT22;3996;49.674;10.716;2022-12-10T13:40:38;1.80;69.40
7902;DHT22;3996;49.674;10.716;2022-12-10T13:43:39;1.80;69.20
7902;DHT22;3996;49.674;10.716;2022-12-10T13:48:56;1.80;68.90
7902;DHT22;3996;49.674;10.716;2022-12-10T13:51:31;1.80;69.00
7902;DHT22;3996;49.674;10.716;2022-12-10T13:54:26;1.80;68.80
7902;DHT22;3996;49.674;10.716;2022-12-10T13:57:27;1.80;68.30
7902;DHT22;3996;49.674;10.716;2022-12-10T14:00:22;1.90;68.00
7902;DHT22;3996;49.674;10.716;2022-12-10T14:02:57;1.90;68.10
7902;DHT22;3996;49.674;10.716;2022-12-10T14:08:00;1.90;66.80
7902;DHT22;3996;49.674;10.716;2022-12-10T14:10:31;1.90;67.00
7902;DHT22;3996;49.674;10.716;2022-12-10T14:12:59;1.90;66.50
7902;DHT22;3996;49.674;10.716;2022-12-10T14:15:26;1.90;66.90
7902;DHT22;3996;49.674;10.716;2022-12-10T14:18:02;1.80;65.60
7902;DHT22;3996;49.674;10.716;2022-12-10T14:20:30;1.80;64.90
7902;DHT22;3996;49.674;10.716;2022-12-10T14:22:56;1.80;64.10
7902;DHT22;3996;49.674;10.716;2022-12-10T14:25:44;1.70;63.50
7902;DHT22;3996;49.674;10.716;2022-12-10T14:28:14;1.80;63.60
7902;DHT22;3996;49.674;10.716;2022-12-10T14:30:46;1.70;63.40
7902;DHT22;3996;49.674;10.716;2022-12-10T14:33:17;1.70;63.50
7902;DHT22;3996;49.674;10.716;2022-12-10T14:35:47;1.70;63.50
7902;DHT22;3996;49.674;10.716;2022-12-10T14:38:20;1.60;62.70
7902;DHT22;3996;49.674;10.716;2022-12-10T14:40:47;1.60;62.70
7902;DHT22;3996;49.674;10.716;2022-12-10T14:43:19;1.60;62.80
7902;DHT22;3996;49.674;10.716;2022-12-10T14:48:14;1.60;63.10
7902;DHT22;3996;49.674;10.716;2022-12-10T14:50:42;1.60;63.40
7902;DHT22;3996;49.674;10.716;2022-12-10T14:53:23;1.60;63.40
7902;DHT22;3996;49.674;10.716;2022-12-10T14:55:52;1.60;63.00
7902;DHT22;3996;49.674;10.716;2022-12-10T14:58:34;1.70;63.00
7902;DHT22;3996;49.674;10.716;2022-12-10T15:01:02;1.60;62.00
7902;DHT22;3996;49.674;10.716;2022-12-10T15:03:32;1.60;62.00
7902;DHT22;3996;49.674;10.716;2022-12-10T15:06:01;1.60;62.90
7902;DHT22;3996;49.674;10.716;2022-12-10T15:08:28;1.60;62.40
7902;DHT22;3996;49.674;10.716;2022-12-10T15:10:56;1.60;62.50
7902;DHT22;3996;49.674;10.716;2022-12-10T15:13:46;1.50;63.40
7902;DHT22;3996;49.674;10.716;2022-12-10T15:16:28;1.50;63.20
7902;DHT22;3996;49.674;10.716;2022-12-10T15:18:54;1.50;62.90
7902;DHT22;3996;49.674;10.716;2022-12-10T15:21:24;1.50;63.00
7902;DHT22;3996;49.674;10.716;2022-12-10T15:23:50;1.40;62.20
7902;DHT22;3996;49.674;10.716;2022-12-10T15:26:21;1.40;63.30
7902;DHT22;3996;49.674;10.716;2022-12-10T15:28:49;1.50;63.80
7902;DHT22;3996;49.674;10.716;2022-12-10T15:31:30;1.40;63.80
7902;DHT22;3996;49.674;10.716;2022-12-10T15:33:58;1.50;65.20
7902;DHT22;3996;49.674;10.716;2022-12-10T15:36:59;1.50;64.40
7902;DHT22;3996;49.674;10.716;2022-12-10T15:39:28;1.50;64.40
7902;DHT22;3996;49.674;10.716;2022-12-10T15:41:59;1.50;64.10
7902;DHT22;3996;49.674;10.716;2022-12-10T15:47:18;1.40;64.60
7902;DHT22;3996;49.674;10.716;2022-12-10T15:49:44;1.40;64.90
7902;DHT22;3996;49.674;10.716;2022-12-10T15:52:15;1.40;65.10
7902;DHT22;3996;49.674;10.716;2022-12-10T15:54:43;1.40;65.00
7902;DHT22;3996;49.674;10.716;2022-12-10T15:57:19;1.40;64.90
7902;DHT22;3996;49.674;10.716;2022-12-10T15:59:49;1.40;64.10
7902;DHT22;3996;49.674;10.716;2022-12-10T16:02:45;1.40;64.30
7902;DHT22;3996;49.674;10.716;2022-12-10T16:05:14;1.40;64.80
7902;DHT22;3996;49.674;10.716;2022-12-10T16:07:41;1.40;64.30
7902;DHT22;3996;49.674;10.716;2022-12-10T16:10:09;1.40;64.40
7902;DHT22;3996;49.674;10.716;2022-12-10T16:12:37;1.30;64.00
7902;DHT22;3996;49.674;10.716;2022-12-10T16:15:04;1.30;64.50
7902;DHT22;3996;49.674;10.716;2022-12-10T16:17:30;1.40;64.50
7902;DHT22;3996;49.674;10.716;2022-12-10T16:20:18;1.40;64.20
7902;DHT22;3996;49.674;10.716;2022-12-10T16:22:45;1.30;64.20
7902;DHT22;3996;49.674;10.716;2022-12-10T16:25:11;1.30;64.40
7902;DHT22;3996;49.674;10.716;2022-12-10T16:27:37;1.30;64.20
7902;DHT22;3996;49.674;10.716;2022-12-10T16:32:45;1.40;64.60
7902;DHT22;3996;49.674;10.716;2022-12-10T16:38:33;1.40;64.40
7902;DHT22;3996;49.674;10.716;2022-12-10T16:40:59;1.40;63.50
7902;DHT22;3996;49.674;10.716;2022-12-10T16:43:27;1.30;63.50
7902;DHT22;3996;49.674;10.716;2022-12-10T16:45:53;1.30;62.50
7902;DHT22;3996;49.674;10.716;2022-12-10T16:48:19;1.40;62.00
7902;DHT22;3996;49.674;10.716;2022-12-10T16:50:46;1.40;62.00
7902;DHT22;3996;49.674;10.716;2022-12-10T16:53:24;1.40;61.10
7902;DHT22;3996;49.674;10.716;2022-12-10T16:55:51;1.40;61.40
7902;DHT22;3996;49.674;10.716;2022-12-10T16:58:16;1.40;61.10
7902;DHT22;3996;49.674;10.716;2022-12-10T17:00:45;1.30;60.20
7902;DHT22;3996;49.674;10.716;2022-12-10T17:03:11;1.30;60.80
7902;DHT22;3996;49.674;10.716;2022-12-10T17:06:09;1.30;61.20
7902;DHT22;3996;49.674;10.716;2022-12-10T17:08:34;1.40;62.00
7902;DHT22;3996;49.674;10.716;2022-12-10T17:11:00;1.30;61.50
7902;DHT22;3996;49.674;10.716;2022-12-10T17:13:45;1.30;61.10
7902;DHT22;3996;49.674;10.716;2022-12-10T17:16:19;1.30;61.50
7902;DHT22;3996;49.674;10.716;2022-12-10T17:18:44;1.30;61.00
7902;DHT22;3996;49.674;10.716;2022-12-10T17:21:10;1.20;60.60
7902;DHT22;3996;49.674;10.716;2022-12-10T17:23:36;1.20;61.50
7902;DHT22;3996;49.674;10.716;2022-12-10T17:26:01;1.20;61.90
7902;DHT22;3996;49.674;10.716;2022-12-10T17:28:27;1.30;61.70
7902;DHT22;3996;49.674;10.716;2022-12-10T17:30:53;1.30;61.60
7902;DHT22;3996;49.674;10.716;2022-12-10T17:33:21;1.40;61.00
7902;DHT22;3996;49.674;10.716;2022-12-10T17:35:48;1.40;61.10
7902;DHT22;3996;49.674;10.716;2022-12-10T17:38:19;1.40;61.20
7902;DHT22;3996;49.674;10.716;2022-12-10T17:40:45;1.50;60.70
7902;DHT22;3996;49.674;10.716;2022-12-10T17:43:11;1.60;60.30
7902;DHT22;3996;49.674;10.716;2022-12-10T17:45:38;1.60;59.60
7902;DHT22;3996;49.674;10.716;2022-12-10T17:48:05;1.50;59.00
7902;DHT22;3996;49.674;10.716;2022-12-10T17:50:33;1.40;58.50